Time;durP1;ratioP1;P1;durP2;ratioP2;P2;SDS_P1;SDS_P2;PMS_P1;PMS_P2;Temp;Humidity;BMP_temperature;BMP_pressure;BME280_temperature;BME280_humidity;BME280_pressure;Samples;Min_cycle;Max_cycle;Signal;HPM_P1;HPM_P2
2021/12/26 00:01:26;;;;;;;;;;;;;;;5.90;57.37;99648.63;4956712;28;6975;-71
2021/12/26 00:03:52;;;;;;;;;;;;;;;5.87;57.11;99643.38;4956550;28;7173;-71
2021/12/26 00:06:26;;;;;;;;;;;;;;;5.84;57.14;99636.44;4957178;28;6867;-71
2021/12/26 00:08:55;;;;;;;;;;;;;;;5.82;56.94;99651.59;4956856;28;6828;-70
2021/12/26 00:11:21;;;;;;;;;;;;;;;5.78;57.50;99643.72;4958314;28;6820;-70
2021/12/26 00:13:50;;;;;;;;;;;;;;;5.76;56.92;99647.84;4958746;28;6975;-71
2021/12/26 00:16:17;;;;;;;;;;;;;;;5.70;57.07;99639.13;4956690;28;9155;-71
2021/12/26 00:18:46;;;;;;;;;;;;;;;5.66;57.34;99632.09;4959832;28;7364;-71
2021/12/26 00:21:19;;;;;;;;;;;;;;;5.63;57.49;99637.03;4956192;28;8884;-71
2021/12/26 00:23:46;;;;;;;;;;;;;;;5.59;57.28;99626.59;4974113;28;6819;-71
2021/12/26 00:26:12;;;;;;;;;;;;;;;5.55;56.61;99630.63;4956714;28;6988;-70
2021/12/26 00:28:38;;;;;;;;;;;;;;;5.50;56.78;99637.09;4940182;28;6820;-71
2021/12/26 00:31:05;;;;;;;;;;;;;;;5.44;56.94;99636.78;4955895;28;6968;-71
2021/12/26 00:33:32;;;;;;;;;;;;;;;5.37;57.20;99633.03;4956163;28;6971;-71
2021/12/26 00:36:00;;;;;;;;;;;;;;;5.31;57.31;99638.63;4956606;28;6931;-71
2021/12/26 00:38:26;;;;;;;;;;;;;;;5.25;57.53;99638.28;4939683;28;7250;-70
2021/12/26 00:40:52;;;;;;;;;;;;;;;5.19;57.46;99627.75;4956432;28;7861;-70
2021/12/26 00:43:18;;;;;;;;;;;;;;;5.14;57.25;99633.47;4958647;28;6852;-70
2021/12/26 00:45:44;;;;;;;;;;;;;;;5.11;57.38;99632.41;4955956;28;7209;-71
2021/12/26 00:48:10;;;;;;;;;;;;;;;5.08;57.67;99642.41;4942719;28;7271;-71
2021/12/26 00:50:39;;;;;;;;;;;;;;;5.05;57.70;99638.00;4941454;28;7142;-71
2021/12/26 00:53:06;;;;;;;;;;;;;;;5.03;58.00;99638.69;4957701;28;7885;-71
2021/12/26 00:55:32;;;;;;;;;;;;;;;5.02;58.00;99636.94;4955376;28;7261;-71
2021/12/26 00:57:59;;;;;;;;;;;;;;;5.02;58.13;99639.50;4951256;28;6872;-70
2021/12/26 01:00:31;;;;;;;;;;;;;;;5.02;57.54;99640.34;4941650;28;7214;-70
2021/12/26 01:03:01;;;;;;;;;;;;;;;5.04;57.71;99637.91;4957459;28;7102;-70
2021/12/26 01:05:28;;;;;;;;;;;;;;;5.04;58.08;99633.72;4957195;28;7038;-70
2021/12/26 01:08:02;;;;;;;;;;;;;;;5.06;57.96;99641.41;4957779;28;8016;-70
2021/12/26 01:10:43;;;;;;;;;;;;;;;5.08;57.83;99635.63;4955457;28;7207;-71
2021/12/26 01:13:47;;;;;;;;;;;;;;;5.10;58.47;99633.19;4956823;28;7250;-71
2021/12/26 01:16:10;;;;;;;;;;;;;;;5.09;57.94;99637.38;4952299;28;7074;-71
2021/12/26 01:18:45;;;;;;;;;;;;;;;5.08;58.11;99634.78;4939475;28;8105;-71
2021/12/26 01:21:19;;;;;;;;;;;;;;;5.07;58.40;99633.00;4957609;28;6862;-71
2021/12/26 01:23:51;;;;;;;;;;;;;;;5.05;58.06;99635.47;4958448;28;6960;-71
2021/12/26 01:26:18;;;;;;;;;;;;;;;5.02;57.69;99642.88;4936851;28;8447;-71
2021/12/26 01:28:44;;;;;;;;;;;;;;;5.02;58.43;99636.94;4954901;28;7007;-71
2021/12/26 01:31:10;;;;;;;;;;;;;;;4.98;57.90;99640.97;4953853;28;7783;-70
2021/12/26 01:33:37;;;;;;;;;;;;;;;4.96;58.19;99643.41;4955664;28;7243;-70
2021/12/26 01:36:04;;;;;;;;;;;;;;;4.94;58.00;99639.06;4954588;28;7366;-71
2021/12/26 01:38:30;;;;;;;;;;;;;;;4.91;58.00;99641.41;4969936;28;6892;-70
2021/12/26 01:40:57;;;;;;;;;;;;;;;4.89;58.25;99640.44;4941587;28;7415;-71
2021/12/26 01:43:30;;;;;;;;;;;;;;;4.83;57.98;99639.31;4954206;28;6820;-71
2021/12/26 01:45:56;;;;;;;;;;;;;;;4.79;58.50;99639.91;4954986;28;6995;-70
2021/12/26 01:48:22;;;;;;;;;;;;;;;4.75;57.92;99635.44;4959001;28;7043;-70
2021/12/26 01:50:53;;;;;;;;;;;;;;;4.71;57.73;99638.56;4957648;28;7033;-71
2021/12/26 01:53:24;;;;;;;;;;;;;;;4.66;57.63;99634.91;4956184;28;7157;-71
2021/12/26 01:55:53;;;;;;;;;;;;;;;4.62;57.77;99627.88;4954669;28;8275;-71
2021/12/26 01:58:29;;;;;;;;;;;;;;;4.58;58.22;99637.84;4956123;28;6815;-71
2021/12/26 02:01:03;;;;;;;;;;;;;;;4.53;58.48;99625.66;4955900;28;6839;-71
2021/12/26 02:03:29;;;;;;;;;;;;;;;4.49;58.07;99622.06;4955518;28;6812;-71
2021/12/26 02:05:55;;;;;;;;;;;;;;;4.48;58.58;99624.50;4956836;28;6793;-71
2021/12/26 02:08:22;;;;;;;;;;;;;;;4.45;58.77;99622.69;4956056;28;6879;-71
2021/12/26 02:10:48;;;;;;;;;;;;;;;4.43;59.08;99621.69;4955636;28;6808;-71
2021/12/26 02:13:14;;;;;;;;;;;;;;;4.44;58.39;99623.44;4953735;28;7010;-71
2021/12/26 02:15:40;;;;;;;;;;;;;;;4.42;58.79;99617.41;4953966;28;6875;-71
2021/12/26 02:18:07;;;;;;;;;;;;;;;4.42;58.77;99614.84;4956735;28;6980;-71
2021/12/26 02:23:12;;;;;;;;;;;;;;;4.41;58.89;99619.06;4946843;28;6812;-71
2021/12/26 02:28:15;;;;;;;;;;;;;;;4.46;59.50;99616.81;4951875;28;7390;-70
2021/12/26 02:30:42;;;;;;;;;;;;;;;4.49;59.45;99609.38;4939229;28;7028;-70
2021/12/26 02:33:11;;;;;;;;;;;;;;;4.54;59.58;99615.63;4941252;28;7304;-71
2021/12/26 02:35:41;;;;;;;;;;;;;;;4.58;59.49;99607.38;4944443;28;7296;-71
2021/12/26 02:38:09;;;;;;;;;;;;;;;4.65;59.39;99612.84;4939458;28;6808;-71
2021/12/26 02:40:35;;;;;;;;;;;;;;;4.69;58.74;99610.56;4954959;28;6903;-71
2021/12/26 02:43:01;;;;;;;;;;;;;;;4.75;59.83;99612.59;4940138;28;7003;-71
2021/12/26 02:45:27;;;;;;;;;;;;;;;4.81;59.81;99614.59;4940262;28;6964;-71
2021/12/26 02:47:53;;;;;;;;;;;;;;;4.89;59.29;99612.50;4924797;28;6929;-71
2021/12/26 02:50:31;;;;;;;;;;;;;;;4.95;59.38;99607.78;4938148;28;7064;-71
2021/12/26 02:53:01;;;;;;;;;;;;;;;5.03;58.90;99609.13;4924134;28;6998;-71
2021/12/26 02:55:27;;;;;;;;;;;;;;;5.08;58.88;99607.69;4941068;28;6831;-70
2021/12/26 02:58:07;;;;;;;;;;;;;;;5.15;59.10;99603.84;4938183;28;7205;-70
2021/12/26 03:00:40;;;;;;;;;;;;;;;5.19;58.86;99604.88;4938609;28;8326;-71
2021/12/26 03:03:07;;;;;;;;;;;;;;;5.25;59.13;99612.88;4908380;28;6857;-71
2021/12/26 03:05:40;;;;;;;;;;;;;;;5.30;59.18;99605.50;4941149;28;7388;-71
2021/12/26 03:08:11;;;;;;;;;;;;;;;5.34;58.70;99603.22;4945314;28;6829;-71
2021/12/26 03:10:39;;;;;;;;;;;;;;;5.38;59.20;99607.69;4946498;28;7686;-71
2021/12/26 03:13:10;;;;;;;;;;;;;;;5.41;58.94;99595.16;4951050;28;6988;-71
2021/12/26 03:15:39;;;;;;;;;;;;;;;5.46;58.80;99599.63;4962675;28;7254;-71
2021/12/26 03:18:07;;;;;;;;;;;;;;;5.48;58.83;99595.47;4975471;28;6807;-71
2021/12/26 03:20:39;;;;;;;;;;;;;;;5.50;59.07;99598.97;4965518;28;7024;-71
2021/12/26 03:23:08;;;;;;;;;;;;;;;5.52;58.79;99592.34;4944244;28;7312;-71
2021/12/26 03:25:34;;;;;;;;;;;;;;;5.55;58.36;99590.84;4959475;28;6900;-71
2021/12/26 03:28:03;;;;;;;;;;;;;;;5.57;58.71;99596.00;4975977;28;6899;-71
2021/12/26 03:30:30;;;;;;;;;;;;;;;5.58;59.07;99595.19;4960930;28;6820;-71
2021/12/26 03:32:59;;;;;;;;;;;;;;;5.60;58.44;99596.19;4965229;28;6800;-71
2021/12/26 03:35:28;;;;;;;;;;;;;;;5.62;59.06;99588.63;4961063;28;6816;-71
2021/12/26 03:37:57;;;;;;;;;;;;;;;5.63;58.78;99582.75;4962044;28;7186;-71
2021/12/26 03:40:22;;;;;;;;;;;;;;;5.64;58.38;99592.13;4961858;28;6824;-71
2021/12/26 03:42:51;;;;;;;;;;;;;;;5.64;58.82;99582.84;4959728;28;7098;-71
2021/12/26 03:45:17;;;;;;;;;;;;;;;5.66;58.84;99578.69;4946339;28;7019;-71
2021/12/26 03:47:46;;;;;;;;;;;;;;;5.66;58.17;99578.69;4956786;28;6939;-71
2021/12/26 03:50:12;;;;;;;;;;;;;;;5.68;58.62;99574.56;4960826;28;6823;-71
2021/12/26 03:52:38;;;;;;;;;;;;;;;5.69;58.69;99572.91;4959305;28;7006;-70
2021/12/26 03:55:04;;;;;;;;;;;;;;;5.72;58.50;99574.75;4943077;28;6875;-70
2021/12/26 03:57:30;;;;;;;;;;;;;;;5.72;58.79;99573.06;4960884;28;7031;-71
2021/12/26 03:59:55;;;;;;;;;;;;;;;5.74;58.18;99574.03;4959551;28;7159;-71
2021/12/26 04:02:21;;;;;;;;;;;;;;;5.76;58.34;99584.28;4957178;28;6958;-71
2021/12/26 04:04:46;;;;;;;;;;;;;;;5.76;58.67;99585.19;4951529;28;6804;-71
2021/12/26 04:07:13;;;;;;;;;;;;;;;5.81;58.97;99587.97;4959670;28;10002;-71
2021/12/26 04:09:39;;;;;;;;;;;;;;;5.85;58.81;99587.31;4960488;28;6803;-71
2021/12/26 04:12:05;;;;;;;;;;;;;;;5.88;58.80;99586.63;4958939;28;6823;-71
2021/12/26 04:14:31;;;;;;;;;;;;;;;5.89;58.15;99588.38;4956657;28;7214;-71
2021/12/26 04:16:57;;;;;;;;;;;;;;;5.90;58.23;99585.91;4930847;28;6800;-71
2021/12/26 04:19:23;;;;;;;;;;;;;;;5.92;58.03;99579.25;4957461;28;7197;-71
2021/12/26 04:21:49;;;;;;;;;;;;;;;5.95;57.91;99578.53;4953074;28;7844;-71
2021/12/26 04:24:14;;;;;;;;;;;;;;;5.94;58.56;99577.66;4942243;28;6784;-71
2021/12/26 04:26:41;;;;;;;;;;;;;;;5.96;58.37;99580.28;4954622;28;7130;-71
2021/12/26 04:29:08;;;;;;;;;;;;;;;5.95;58.11;99584.47;4957292;28;8047;-71
2021/12/26 04:31:34;;;;;;;;;;;;;;;5.97;58.33;99570.16;4956551;28;7299;-71
2021/12/26 04:33:59;;;;;;;;;;;;;;;5.97;57.86;99557.44;4947491;28;6867;-71
2021/12/26 04:36:25;;;;;;;;;;;;;;;5.97;58.19;99565.09;4954033;28;7286;-71
2021/12/26 04:38:51;;;;;;;;;;;;;;;5.97;58.38;99582.03;4958155;28;6803;-70
2021/12/26 04:41:17;;;;;;;;;;;;;;;5.97;58.25;99580.34;4939718;28;7778;-71
2021/12/26 04:43:42;;;;;;;;;;;;;;;5.98;57.88;99582.09;4938464;28;6967;-71
2021/12/26 04:46:10;;;;;;;;;;;;;;;5.97;57.88;99582.88;4932412;28;7022;-70
2021/12/26 04:48:41;;;;;;;;;;;;;;;5.97;58.23;99577.81;4956877;28;6811;-70
2021/12/26 04:51:10;;;;;;;;;;;;;;;5.97;58.09;99572.72;4959350;28;6853;-70
2021/12/26 04:53:38;;;;;;;;;;;;;;;5.98;58.33;99574.47;4943377;28;6808;-70
2021/12/26 04:56:06;;;;;;;;;;;;;;;6.00;58.02;99568.59;4958867;28;7234;-70
2021/12/26 04:58:33;;;;;;;;;;;;;;;6.01;57.87;99570.34;4957419;28;7192;-71
2021/12/26 05:00:58;;;;;;;;;;;;;;;6.01;57.85;99573.75;4956584;28;7782;-71
2021/12/26 05:03:24;;;;;;;;;;;;;;;6.02;58.15;99569.59;4957103;28;6800;-71
2021/12/26 05:05:50;;;;;;;;;;;;;;;6.03;58.16;99577.28;4957525;28;7652;-71
2021/12/26 05:08:16;;;;;;;;;;;;;;;6.05;58.11;99574.81;4950606;28;6788;-71
2021/12/26 05:10:44;;;;;;;;;;;;;;;6.05;58.14;99580.81;4954604;28;6815;-71
2021/12/26 05:13:10;;;;;;;;;;;;;;;6.06;58.16;99579.13;4952932;28;6816;-71
2021/12/26 05:15:36;;;;;;;;;;;;;;;6.05;58.11;99574.81;4938555;28;6855;-71
2021/12/26 05:18:04;;;;;;;;;;;;;;;6.04;57.86;99571.44;4939061;28;7181;-71
2021/12/26 05:20:31;;;;;;;;;;;;;;;6.06;58.15;99571.50;4956404;28;6853;-71
2021/12/26 05:22:58;;;;;;;;;;;;;;;6.04;57.80;99563.78;4943199;28;6804;-71
2021/12/26 05:25:24;;;;;;;;;;;;;;;6.05;58.20;99565.53;4956605;28;7074;-71
2021/12/26 05:27:52;;;;;;;;;;;;;;;6.06;58.48;99568.94;4956271;28;7282;-71
2021/12/26 05:30:21;;;;;;;;;;;;;;;6.04;58.16;99556.16;4956854;28;7007;-71
2021/12/26 05:32:46;;;;;;;;;;;;;;;6.03;58.00;99556.06;4955672;28;6909;-71
2021/12/26 05:35:14;;;;;;;;;;;;;;;6.03;58.11;99556.94;4959173;28;6787;-71
2021/12/26 05:37:40;;;;;;;;;;;;;;;6.01;57.77;99550.00;4953111;28;6998;-70
2021/12/26 05:40:08;;;;;;;;;;;;;;;6.02;57.94;99549.25;4955325;28;6914;-71
2021/12/26 05:42:35;;;;;;;;;;;;;;;6.03;58.14;99540.81;4954212;28;6819;-71
2021/12/26 05:45:02;;;;;;;;;;;;;;;6.04;58.27;99542.56;4953003;28;6990;-71
2021/12/26 05:47:28;;;;;;;;;;;;;;;6.03;58.06;99541.66;4954627;28;6800;-71
2021/12/26 05:49:55;;;;;;;;;;;;;;;6.04;58.10;99547.63;4957402;28;7195;-70
2021/12/26 05:52:21;;;;;;;;;;;;;;;6.03;57.85;99545.91;4937446;28;7240;-70
2021/12/26 05:54:48;;;;;;;;;;;;;;;6.03;58.13;99550.97;4948117;28;7201;-70
2021/12/26 05:57:14;;;;;;;;;;;;;;;6.01;57.96;99547.47;4951246;28;6820;-71
2021/12/26 05:59:42;;;;;;;;;;;;;;;6.00;58.47;99543.16;4949575;28;7227;-70
2021/12/26 06:02:08;;;;;;;;;;;;;;;5.98;58.32;99538.84;4947587;28;7191;-71
2021/12/26 06:04:33;;;;;;;;;;;;;;;6.00;58.15;99543.16;4956044;28;6820;-71
2021/12/26 06:06:59;;;;;;;;;;;;;;;6.00;58.11;99538.94;4947719;28;6799;-71
2021/12/26 06:09:25;;;;;;;;;;;;;;;6.00;57.87;99540.63;4953737;28;6792;-71
2021/12/26 06:11:51;;;;;;;;;;;;;;;6.00;58.15;99544.03;4933965;28;7213;-70
2021/12/26 06:14:17;;;;;;;;;;;;;;;6.00;58.14;99545.72;4935401;28;7045;-70
2021/12/26 06:16:43;;;;;;;;;;;;;;;6.00;57.85;99544.03;4947230;28;7134;-70
2021/12/26 06:19:09;;;;;;;;;;;;;;;6.00;57.42;99533.84;4943256;28;6815;-70
2021/12/26 06:21:35;;;;;;;;;;;;;;;6.03;58.27;99546.75;4943869;28;6792;-71
2021/12/26 06:24:01;;;;;;;;;;;;;;;6.05;58.06;99549.38;4962689;28;7415;-70
2021/12/26 06:26:28;;;;;;;;;;;;;;;6.07;58.47;99541.06;4947548;28;6901;-70
2021/12/26 06:28:54;;;;;;;;;;;;;;;6.10;58.04;99550.53;4947488;28;6980;-70
2021/12/26 06:31:21;;;;;;;;;;;;;;;6.10;58.09;99548.84;4947951;28;6796;-70
2021/12/26 06:33:46;;;;;;;;;;;;;;;6.12;57.91;99546.38;4950024;28;7752;-70
2021/12/26 06:36:14;;;;;;;;;;;;;;;6.14;58.06;99543.94;4945236;28;7995;-70
2021/12/26 06:38:42;;;;;;;;;;;;;;;6.17;58.04;99546.63;4934896;28;6815;-70
2021/12/26 06:41:12;;;;;;;;;;;;;;;6.17;57.87;99544.94;4944726;28;7920;-70
2021/12/26 06:43:38;;;;;;;;;;;;;;;6.17;58.32;99539.84;4965106;28;7689;-70
2021/12/26 06:46:05;;;;;;;;;;;;;;;6.17;58.08;99544.94;4940000;28;7880;-70
2021/12/26 06:48:34;;;;;;;;;;;;;;;6.18;57.87;99531.44;4931189;28;6861;-70
2021/12/26 06:51:01;;;;;;;;;;;;;;;6.20;57.70;99534.94;4945150;28;6816;-71
2021/12/26 06:53:27;;;;;;;;;;;;;;;6.21;58.07;99534.13;4949195;28;6835;-71
2021/12/26 06:55:53;;;;;;;;;;;;;;;6.21;58.06;99531.59;4940528;28;7413;-70
2021/12/26 06:58:19;;;;;;;;;;;;;;;6.22;58.01;99527.34;4937194;28;6783;-70
2021/12/26 07:00:45;;;;;;;;;;;;;;;6.20;58.33;99529.84;4963001;28;6812;-70
2021/12/26 07:03:11;;;;;;;;;;;;;;;6.20;57.96;99531.50;4947384;28;7008;-71
2021/12/26 07:05:37;;;;;;;;;;;;;;;6.18;58.34;99534.00;4948933;28;7302;-70
2021/12/26 07:08:04;;;;;;;;;;;;;;;6.21;57.89;99544.31;4947485;28;6807;-71
2021/12/26 07:10:30;;;;;;;;;;;;;;;6.21;58.05;99541.78;4952130;28;6800;-70
2021/12/26 07:12:56;;;;;;;;;;;;;;;6.23;57.94;99540.16;4947909;28;7135;-70
2021/12/26 07:15:22;;;;;;;;;;;;;;;6.23;58.22;99537.63;4931232;28;7605;-71
2021/12/26 07:17:47;;;;;;;;;;;;;;;6.24;58.17;99541.91;4947697;28;6795;-70
2021/12/26 07:20:14;;;;;;;;;;;;;;;6.25;57.89;99543.66;4947710;28;6787;-70
2021/12/26 07:22:42;;;;;;;;;;;;;;;6.24;57.79;99544.47;4953128;28;6967;-71
2021/12/26 07:25:08;;;;;;;;;;;;;;;6.23;57.88;99545.25;4952131;28;6883;-71
2021/12/26 07:27:34;;;;;;;;;;;;;;;6.23;57.77;99550.34;4968227;28;7178;-71
2021/12/26 07:30:03;;;;;;;;;;;;;;;6.24;58.18;99543.59;4949568;28;6800;-70
2021/12/26 07:32:30;;;;;;;;;;;;;;;6.25;58.17;99552.97;4932800;28;7341;-70
2021/12/26 07:34:57;;;;;;;;;;;;;;;6.28;58.31;99550.59;4949007;28;6887;-70
2021/12/26 07:37:25;;;;;;;;;;;;;;;6.31;57.97;99554.97;4937513;28;7023;-70
2021/12/26 07:39:51;;;;;;;;;;;;;;;6.32;58.16;99544.00;4950719;28;6898;-70
2021/12/26 07:42:16;;;;;;;;;;;;;;;6.34;57.91;99542.38;4951784;28;8055;-70
2021/12/26 07:44:43;;;;;;;;;;;;;;;6.35;58.14;99549.22;4946678;28;7383;-71
2021/12/26 07:47:09;;;;;;;;;;;;;;;6.34;57.66;99548.38;4942773;28;7981;-70
2021/12/26 07:49:35;;;;;;;;;;;;;;;6.36;58.20;99548.44;4947364;28;6823;-70
2021/12/26 07:52:02;;;;;;;;;;;;;;;6.37;57.68;99551.06;4927386;28;7662;-71
2021/12/26 07:54:28;;;;;;;;;;;;;;;6.39;57.99;99556.25;4948236;28;6816;-70
2021/12/26 07:56:55;;;;;;;;;;;;;;;6.42;58.07;99558.94;4939009;28;8141;-70
2021/12/26 07:59:21;;;;;;;;;;;;;;;6.44;58.01;99554.78;4951003;28;7712;-70
2021/12/26 08:01:47;;;;;;;;;;;;;;;6.46;58.15;99559.97;4949081;28;6807;-71
2021/12/26 08:04:14;;;;;;;;;;;;;;;6.46;58.33;99559.97;4936989;28;7182;-71
2021/12/26 08:06:41;;;;;;;;;;;;;;;6.49;58.03;99563.53;4941398;28;6988;-71
2021/12/26 08:09:07;;;;;;;;;;;;;;;6.49;57.92;99558.44;4940792;28;6804;-71
2021/12/26 08:11:33;;;;;;;;;;;;;;;6.52;57.65;99563.69;4936615;28;6853;-71
2021/12/26 08:13:59;;;;;;;;;;;;;;;6.55;58.08;99569.72;4945257;28;7860;-71
2021/12/26 08:16:26;;;;;;;;;;;;;;;6.58;57.58;99567.34;4948705;28;7294;-70
2021/12/26 08:18:54;;;;;;;;;;;;;;;6.61;57.59;99572.59;4951094;28;6995;-70
2021/12/26 08:21:20;;;;;;;;;;;;;;;6.62;57.91;99570.13;4955896;28;6907;-70
2021/12/26 08:23:46;;;;;;;;;;;;;;;6.66;58.03;99558.41;4960646;28;7015;-70
2021/12/26 08:26:11;;;;;;;;;;;;;;;6.68;57.64;99556.84;4948038;28;8473;-71
2021/12/26 08:28:37;;;;;;;;;;;;;;;6.69;58.03;99552.59;4957946;28;7189;-71
2021/12/26 08:31:03;;;;;;;;;;;;;;;6.71;57.74;99558.63;4958144;28;6907;-71
2021/12/26 08:33:29;;;;;;;;;;;;;;;6.73;58.12;99559.63;4957564;28;7136;-71
2021/12/26 08:35:55;;;;;;;;;;;;;;;6.74;58.06;99553.72;4939527;28;8587;-71
2021/12/26 08:38:21;;;;;;;;;;;;;;;6.76;58.06;99552.13;4956914;28;7082;-71
2021/12/26 08:40:53;;;;;;;;;;;;;;;6.77;57.34;99552.22;4955775;28;7271;-70
2021/12/26 08:43:19;;;;;;;;;;;;;;;6.79;57.68;99547.16;4955919;28;7034;-70
2021/12/26 08:45:46;;;;;;;;;;;;;;;6.83;57.88;99553.28;4957401;28;6800;-71
2021/12/26 08:48:12;;;;;;;;;;;;;;;6.83;57.30;99550.75;4937500;28;6974;-71
2021/12/26 08:50:38;;;;;;;;;;;;;;;6.84;57.57;99555.91;4953771;28;7225;-71
2021/12/26 08:53:04;;;;;;;;;;;;;;;6.83;57.86;99549.09;4940881;28;7995;-71
2021/12/26 08:55:31;;;;;;;;;;;;;;;6.84;57.80;99550.84;4957720;28;6995;-71
2021/12/26 08:57:58;;;;;;;;;;;;;;;6.87;57.54;99555.22;4959709;28;6996;-71
2021/12/26 09:00:24;;;;;;;;;;;;;;;6.89;57.76;99551.06;4940213;28;7051;-71
2021/12/26 09:02:51;;;;;;;;;;;;;;;6.93;57.32;99555.50;4953879;28;6816;-71
2021/12/26 09:05:17;;;;;;;;;;;;;;;6.97;57.60;99549.75;4957664;28;7187;-71
2021/12/26 09:07:43;;;;;;;;;;;;;;;7.00;57.47;99551.56;4957751;28;6780;-71
2021/12/26 09:10:11;;;;;;;;;;;;;;;7.02;57.38;99552.53;4955173;28;8674;-71
2021/12/26 09:12:38;;;;;;;;;;;;;;;7.03;57.20;99547.50;4954624;28;7008;-71
2021/12/26 09:15:08;;;;;;;;;;;;;;;7.04;56.97;99554.34;4959670;28;6812;-71
2021/12/26 09:17:34;;;;;;;;;;;;;;;7.05;57.74;99543.38;4942433;28;6992;-71
2021/12/26 09:20:00;;;;;;;;;;;;;;;7.11;57.56;99541.91;4941292;28;7004;-71
2021/12/26 09:22:25;;;;;;;;;;;;;;;7.15;57.80;99546.38;4960044;28;6808;-71
2021/12/26 09:24:52;;;;;;;;;;;;;;;7.19;57.41;99545.69;4957085;28;6833;-71
2021/12/26 09:27:18;;;;;;;;;;;;;;;7.26;57.35;99550.28;4959416;28;7850;-71
2021/12/26 09:29:44;;;;;;;;;;;;;;;7.32;56.98;99558.22;4955654;28;6816;-71
2021/12/26 09:32:10;;;;;;;;;;;;;;;7.36;57.65;99560.13;4957521;28;6819;-71
2021/12/26 09:34:37;;;;;;;;;;;;;;;7.39;57.39;99551.75;4958813;28;8016;-71
2021/12/26 09:37:07;;;;;;;;;;;;;;;7.45;56.95;99548.63;4956039;28;7163;-71
2021/12/26 09:39:34;;;;;;;;;;;;;;;7.47;57.31;99549.56;4958038;28;6892;-71
2021/12/26 09:42:00;;;;;;;;;;;;;;;7.49;57.58;99553.03;4956371;28;7885;-71
2021/12/26 09:44:26;;;;;;;;;;;;;;;7.51;57.03;99553.97;4958583;28;7262;-71
2021/12/26 09:46:52;;;;;;;;;;;;;;;7.52;57.34;99545.53;4954595;28;6788;-71
2021/12/26 09:49:19;;;;;;;;;;;;;;;7.53;57.05;99547.25;4940433;28;6851;-71
2021/12/26 09:51:45;;;;;;;;;;;;;;;7.55;56.97;99548.25;4960289;28;6896;-71
2021/12/26 09:54:11;;;;;;;;;;;;;;;7.57;56.92;99556.81;4958249;28;6808;-71
2021/12/26 09:56:37;;;;;;;;;;;;;;;7.59;56.69;99555.22;4957749;28;6887;-71
2021/12/26 09:59:13;;;;;;;;;;;;;;;7.63;56.53;99559.66;4958284;28;8040;-71
2021/12/26 10:01:47;;;;;;;;;;;;;;;7.68;56.61;99549.69;4957972;28;7406;-71
2021/12/26 10:04:31;;;;;;;;;;;;;;;7.72;57.27;99543.91;4939052;28;7217;-71
2021/12/26 10:07:06;;;;;;;;;;;;;;;7.78;56.33;99546.75;4955681;28;6828;-71
2021/12/26 10:09:37;;;;;;;;;;;;;;;7.86;56.78;99536.00;4957429;28;7006;-71
2021/12/26 10:12:05;;;;;;;;;;;;;;;7.91;57.20;99532.84;4957764;28;6800;-71
2021/12/26 10:14:35;;;;;;;;;;;;;;;7.96;56.84;99532.19;4956101;28;7293;-71
2021/12/26 10:17:26;;;;;;;;;;;;;;;8.00;56.53;99527.28;4958156;28;7946;-71
2021/12/26 10:20:08;;;;;;;;;;;;;;;8.05;56.72;99522.38;4959783;28;7249;-71
2021/12/26 10:22:35;;;;;;;;;;;;;;;8.11;56.43;99522.66;4971671;28;7146;-71
2021/12/26 10:25:14;;;;;;;;;;;;;;;8.15;56.81;99511.78;4955194;28;7122;-71
2021/12/26 10:27:41;;;;;;;;;;;;;;;8.22;56.24;99506.94;4953963;28;7308;-71
2021/12/26 10:30:15;;;;;;;;;;;;;;;8.27;55.93;99510.56;4956815;28;7035;-71
2021/12/26 10:32:41;;;;;;;;;;;;;;;8.34;56.09;99508.31;4921305;28;7211;-71
2021/12/26 10:35:15;;;;;;;;;;;;;;;8.40;56.91;99497.53;4956128;28;6811;-71
2021/12/26 10:37:48;;;;;;;;;;;;;;;8.46;56.56;99502.88;4958667;28;7300;-71
2021/12/26 10:40:23;;;;;;;;;;;;;;;8.54;55.87;99512.56;4958494;28;6819;-71
2021/12/26 10:42:57;;;;;;;;;;;;;;;8.60;55.81;99505.16;4957491;28;7247;-71
2021/12/26 10:45:33;;;;;;;;;;;;;;;8.65;56.37;99498.56;4955171;28;6800;-71
2021/12/26 10:48:04;;;;;;;;;;;;;;;8.71;56.30;99485.16;4958438;28;7021;-71
2021/12/26 10:50:35;;;;;;;;;;;;;;;8.75;55.42;99482.78;4970712;28;6972;-71
2021/12/26 10:53:07;;;;;;;;;;;;;;;8.77;55.34;99480.31;4959904;28;7254;-71
2021/12/26 10:55:51;;;;;;;;;;;;;;;8.82;56.19;99483.03;4960914;28;6956;-71
2021/12/26 10:58:20;;;;;;;;;;;;;;;8.84;55.85;99478.88;4960997;28;7253;-71
2021/12/26 11:00:55;;;;;;;;;;;;;;;8.89;55.63;99475.69;4960714;28;7207;-71
2021/12/26 11:03:25;;;;;;;;;;;;;;;8.90;56.12;99468.91;4960882;28;7163;-71
2021/12/26 11:06:02;;;;;;;;;;;;;;;8.89;55.06;99460.34;4960124;28;6803;-71
2021/12/26 11:08:42;;;;;;;;;;;;;;;8.86;55.36;99459.34;4962771;28;7139;-71
2021/12/26 11:11:22;;;;;;;;;;;;;;;8.86;55.64;99455.13;4951974;28;7416;-71
2021/12/26 11:13:50;;;;;;;;;;;;;;;8.84;54.99;99448.19;4957068;28;6815;-71
2021/12/26 11:16:16;;;;;;;;;;;;;;;8.82;56.10;99444.72;4957006;28;7199;-71
2021/12/26 11:18:43;;;;;;;;;;;;;;;8.83;55.40;99461.78;4973909;28;6880;-71
2021/12/26 11:21:13;;;;;;;;;;;;;;;8.81;55.33;99460.88;4960798;28;6947;-71
2021/12/26 11:23:43;;;;;;;;;;;;;;;8.82;55.02;99465.16;4944638;28;7035;-71
2021/12/26 11:26:13;;;;;;;;;;;;;;;8.84;55.16;99463.53;4960448;28;7190;-71
2021/12/26 11:28:46;;;;;;;;;;;;;;;8.87;55.68;99463.66;4970249;28;7143;-71
2021/12/26 11:31:21;;;;;;;;;;;;;;;8.87;56.32;99459.41;4944855;28;7013;-71
2021/12/26 11:33:54;;;;;;;;;;;;;;;8.88;55.84;99455.16;4951340;28;6995;-71
2021/12/26 11:36:20;;;;;;;;;;;;;;;8.89;56.01;99450.13;4945582;28;7087;-71
2021/12/26 11:38:49;;;;;;;;;;;;;;;8.91;55.92;99455.31;4961503;28;7246;-72
2021/12/26 11:41:58;;;;;;;;;;;;;;;8.94;55.78;99454.56;4963013;28;6876;-71
2021/12/26 11:44:51;;;;;;;;;;;;;;;8.94;56.21;99445.19;4956510;28;7203;-71
2021/12/26 11:48:10;;;;;;;;;;;;;;;8.95;55.06;99452.06;4941352;28;6985;-71
2021/12/26 11:51:13;;;;;;;;;;;;;;;8.97;55.83;99454.69;4959903;28;6816;-71
2021/12/26 11:54:25;;;;;;;;;;;;;;;9.02;55.30;99463.38;4962563;28;7087;-71
2021/12/26 11:57:04;;;;;;;;;;;;;;;9.07;56.59;99461.88;4961918;28;7010;-71
2021/12/26 11:59:56;;;;;;;;;;;;;;;9.15;56.03;99457.06;4959392;28;6812;-71
2021/12/26 12:02:41;;;;;;;;;;;;;;;9.24;55.54;99459.97;4960527;28;6887;-71
2021/12/26 12:05:13;;;;;;;;;;;;;;;9.31;55.41;99466.19;4941735;28;7956;-71
2021/12/26 12:07:49;;;;;;;;;;;;;;;9.40;56.16;99463.13;4959612;28;6820;-71
2021/12/26 12:10:43;;;;;;;;;;;;;;;9.47;56.58;99457.44;4959780;28;6804;-71
2021/12/26 12:13:23;;;;;;;;;;;;;;;9.56;55.62;99446.66;4960063;28;6816;-71
2021/12/26 12:15:55;;;;;;;;;;;;;;;9.66;56.16;99446.16;4960680;28;6975;-71
2021/12/26 12:18:25;;;;;;;;;;;;;;;9.76;56.18;99446.50;4950365;28;7158;-71
2021/12/26 12:21:21;;;;;;;;;;;;;;;9.82;55.71;99447.59;4919096;28;6878;-71
2021/12/26 12:24:08;;;;;;;;;;;;;;;9.90;55.96;99437.66;4960468;28;7005;-71
2021/12/26 12:26:58;;;;;;;;;;;;;;;9.96;55.64;99439.53;4952740;28;8226;-71
2021/12/26 12:29:29;;;;;;;;;;;;;;;9.97;54.81;99431.91;4957801;28;7169;-71
2021/12/26 12:32:07;;;;;;;;;;;;;;;10.00;54.88;99434.59;4957510;28;6804;-71
2021/12/26 12:34:59;;;;;;;;;;;;;;;10.04;54.75;99432.97;4958728;28;6983;-71
2021/12/26 12:37:47;;;;;;;;;;;;;;;10.07;55.22;99427.97;4954732;28;7047;-71
2021/12/26 12:40:30;;;;;;;;;;;;;;;10.07;55.27;99430.53;4955830;28;6824;-71
2021/12/26 12:43:10;;;;;;;;;;;;;;;10.06;54.66;99420.25;4958132;28;6820;-71
2021/12/26 12:45:54;;;;;;;;;;;;;;;10.02;54.67;99432.06;4955929;28;7153;-71
2021/12/26 12:49:06;;;;;;;;;;;;;;;9.98;54.38;99425.09;4958094;28;6814;-71
2021/12/26 12:51:44;;;;;;;;;;;;;;;9.97;54.44;99424.22;4926493;28;6824;-71
2021/12/26 12:54:34;;;;;;;;;;;;;;;9.97;54.77;99424.22;4958898;28;6820;-71
2021/12/26 12:57:05;;;;;;;;;;;;;;;9.96;54.41;99419.06;4957673;28;7153;-71
2021/12/26 12:59:39;;;;;;;;;;;;;;;9.96;54.58;99416.50;4955587;28;6832;-71
2021/12/26 13:02:10;;;;;;;;;;;;;;;9.94;54.53;99423.25;4957986;28;9757;-71
2021/12/26 13:04:50;;;;;;;;;;;;;;;9.94;54.70;99423.25;4960392;28;6867;-70
2021/12/26 13:07:25;;;;;;;;;;;;;;;9.95;54.85;99419.91;4954996;28;7279;-71
2021/12/26 13:10:03;;;;;;;;;;;;;;;9.98;54.86;99412.31;4960455;28;6831;-71
2021/12/26 13:12:29;;;;;;;;;;;;;;;10.02;54.96;99403.91;4954315;28;7949;-71
2021/12/26 13:15:01;;;;;;;;;;;;;;;10.05;54.93;99398.91;4955202;28;6808;-71
2021/12/26 13:17:36;;;;;;;;;;;;;;;10.05;54.54;99393.78;4958269;28;6832;-71
2021/12/26 13:20:13;;;;;;;;;;;;;;;10.03;55.02;99392.00;4958809;28;6828;-71
2021/12/26 13:22:49;;;;;;;;;;;;;;;9.99;55.17;99388.44;4957294;28;6850;-71
2021/12/26 13:25:41;;;;;;;;;;;;;;;9.97;55.22;99396.06;4954511;28;6898;-71
2021/12/26 13:28:10;;;;;;;;;;;;;;;9.93;54.59;99391.66;4953479;28;6820;-71